sensor_id;sensor_type;location;lat;lon;timestamp;pressure;altitude;pressure_sealevel;temperature;humidity
65754;BME280;52488;47.502;18.940;2022-10-26T00:00:03;98610.75;;;10.71;100.00
65754;BME280;52488;47.502;18.940;2022-10-26T00:01:13;98611.03;;;10.65;100.00
65754;BME280;52488;47.502;18.940;2022-10-26T00:02:17;98608.28;;;10.65;100.00
65754;BME280;52488;47.502;18.940;2022-10-26T00:03:20;98611.19;;;10.67;100.00
65754;BME280;52488;47.502;18.940;2022-10-26T00:04:23;98605.69;;;10.67;100.00
65754;BME280;52488;47.502;18.940;2022-10-26T00:05:26;98613.81;;;10.75;100.00
65754;BME280;52488;47.502;18.940;2022-10-26T00:06:29;98614.53;;;10.75;100.00
65754;BME280;52488;47.502;18.940;2022-10-26T00:07:32;98609.38;;;10.79;100.00
65754;BME280;52488;47.502;18.940;2022-10-26T00:08:39;98607.66;;;10.84;100.00
65754;BME280;52488;47.502;18.940;2022-10-26T00:09:42;98613.19;;;10.94;100.00
65754;BME280;52488;47.502;18.940;2022-10-26T00:10:45;98607.25;;;10.97;100.00
65754;BME280;52488;47.502;18.940;2022-10-26T00:11:48;98612.75;;;10.97;100.00
65754;BME280;52488;47.502;18.940;2022-10-26T00:12:51;98610.62;;;11.05;100.00
65754;BME280;52488;47.502;18.940;2022-10-26T00:13:54;98614.25;;;11.08;100.00
65754;BME280;52488;47.502;18.940;2022-10-26T00:14:57;98607.16;;;11.05;100.00
65754;BME280;52488;47.502;18.940;2022-10-26T00:16:00;98613.66;;;11.09;100.00
65754;BME280;52488;47.502;18.940;2022-10-26T00:17:03;98611.63;;;11.10;100.00
65754;BME280;52488;47.502;18.940;2022-10-26T00:18:06;98611.81;;;11.12;100.00
65754;BME280;52488;47.502;18.940;2022-10-26T00:19:09;98617.12;;;11.10;100.00
65754;BME280;52488;47.502;18.940;2022-10-26T00:20:15;98613.22;;;11.03;100.00
65754;BME280;52488;47.502;18.940;2022-10-26T00:21:18;98606.91;;;11.10;100.00
65754;BME280;52488;47.502;18.940;2022-10-26T00:22:21;98613.56;;;11.17;100.00
65754;BME280;52488;47.502;18.940;2022-10-26T00:23:24;98611.38;;;11.16;100.00
65754;BME280;52488;47.502;18.940;2022-10-26T00:24:27;98617.91;;;11.20;100.00
65754;BME280;52488;47.502;18.940;2022-10-26T00:25:29;98610.66;;;11.15;100.00
65754;BME280;52488;47.502;18.940;2022-10-26T00:26:32;98613.37;;;11.05;100.00
65754;BME280;52488;47.502;18.940;2022-10-26T00:27:35;98610.62;;;11.05;100.00
65754;BME280;52488;47.502;18.940;2022-10-26T00:28:40;98609.78;;;11.13;100.00
65754;BME280;52488;47.502;18.940;2022-10-26T00:29:43;98617.59;;;11.06;100.00
65754;BME280;52488;47.502;18.940;2022-10-26T00:30:46;98612.66;;;11.05;100.00
65754;BME280;52488;47.502;18.940;2022-10-26T00:31:48;98613.97;;;11.14;100.00
65754;BME280;52488;47.502;18.940;2022-10-26T00:32:51;98611.94;;;11.14;100.00
65754;BME280;52488;47.502;18.940;2022-10-26T00:33:55;98615.88;;;11.11;100.00
65754;BME280;52488;47.502;18.940;2022-10-26T00:34:58;98615.88;;;11.11;100.00
65754;BME280;52488;47.502;18.940;2022-10-26T00:36:23;98605.59;;;11.12;100.00
65754;BME280;52488;47.502;18.940;2022-10-26T00:37:26;98610.06;;;11.07;100.00
65754;BME280;52488;47.502;18.940;2022-10-26T00:38:29;98608.00;;;10.98;100.00
65754;BME280;52488;47.502;18.940;2022-10-26T00:39:32;98599.75;;;10.98;100.00
65754;BME280;52488;47.502;18.940;2022-10-26T00:40:35;98598.72;;;10.93;100.00
65754;BME280;52488;47.502;18.940;2022-10-26T00:41:38;98601.94;;;10.99;100.00
65754;BME280;52488;47.502;18.940;2022-10-26T00:42:41;98599.44;;;10.94;100.00
65754;BME280;52488;47.502;18.940;2022-10-26T00:43:44;98597.84;;;10.91;100.00
65754;BME280;52488;47.502;18.940;2022-10-26T00:45:51;98601.56;;;10.86;100.00
65754;BME280;52488;47.502;18.940;2022-10-26T00:46:56;98590.59;;;10.86;100.00
65754;BME280;52488;47.502;18.940;2022-10-26T00:48:02;98604.19;;;10.83;100.00
65754;BME280;52488;47.502;18.940;2022-10-26T00:49:13;98596.50;;;10.82;100.00
65754;BME280;52488;47.502;18.940;2022-10-26T00:50:23;98599.81;;;10.80;100.00
65754;BME280;52488;47.502;18.940;2022-10-26T00:51:34;98595.38;;;10.85;100.00
65754;BME280;52488;47.502;18.940;2022-10-26T00:52:39;98599.28;;;10.92;100.00
65754;BME280;52488;47.502;18.940;2022-10-26T00:53:43;98592.50;;;10.93;100.00
65754;BME280;52488;47.502;18.940;2022-10-26T00:54:46;98594.25;;;10.98;100.00
65754;BME280;52488;47.502;18.940;2022-10-26T00:55:51;98591.19;;;10.94;100.00
65754;BME280;52488;47.502;18.940;2022-10-26T00:56:55;98589.19;;;10.94;100.00
65754;BME280;52488;47.502;18.940;2022-10-26T00:57:59;98594.88;;;11.06;100.00
65754;BME280;52488;47.502;18.940;2022-10-26T00:59:05;98591.37;;;11.05;100.00
65754;BME280;52488;47.502;18.940;2022-10-26T01:00:09;98599.03;;;10.97;100.00
65754;BME280;52488;47.502;18.940;2022-10-26T01:01:12;98587.16;;;10.95;100.00
65754;BME280;52488;47.502;18.940;2022-10-26T01:02:16;98586.56;;;10.96;100.00
65754;BME280;52488;47.502;18.940;2022-10-26T01:03:19;98591.53;;;11.07;100.00
65754;BME280;52488;47.502;18.940;2022-10-26T01:04:22;98589.66;;;11.10;100.00
65754;BME280;52488;47.502;18.940;2022-10-26T01:05:25;98589.38;;;11.16;100.00
65754;BME280;52488;47.502;18.940;2022-10-26T01:06:30;98590.13;;;11.16;100.00
65754;BME280;52488;47.502;18.940;2022-10-26T01:07:35;98595.00;;;11.08;100.00
65754;BME280;52488;47.502;18.940;2022-10-26T01:08:39;98590.13;;;11.16;100.00
65754;BME280;52488;47.502;18.940;2022-10-26T01:09:43;98597.16;;;11.09;100.00
65754;BME280;52488;47.502;18.940;2022-10-26T01:10:46;98593.28;;;11.13;100.00
65754;BME280;52488;47.502;18.940;2022-10-26T01:11:50;98594.72;;;11.14;100.00
65754;BME280;52488;47.502;18.940;2022-10-26T01:12:54;98595.31;;;11.12;100.00
65754;BME280;52488;47.502;18.940;2022-10-26T01:14:00;98595.00;;;11.08;100.00
65754;BME280;52488;47.502;18.940;2022-10-26T01:15:04;98587.38;;;11.16;100.00
65754;BME280;52488;47.502;18.940;2022-10-26T01:22:25;98584.16;;;11.10;100.00
65754;BME280;52488;47.502;18.940;2022-10-26T01:23:36;98583.00;;;11.13;100.00
65754;BME280;52488;47.502;18.940;2022-10-26T01:26:50;98584.69;;;10.99;100.00
65754;BME280;52488;47.502;18.940;2022-10-26T01:27:55;98581.66;;;10.95;100.00
65754;BME280;52488;47.502;18.940;2022-10-26T01:29:19;98582.25;;;11.03;100.00
65754;BME280;52488;47.502;18.940;2022-10-26T01:30:32;98588.19;;;10.99;100.00
65754;BME280;52488;47.502;18.940;2022-10-26T01:31:41;98577.75;;;10.98;100.00
65754;BME280;52488;47.502;18.940;2022-10-26T01:34:07;98584.00;;;11.08;100.00
65754;BME280;52488;47.502;18.940;2022-10-26T01:35:22;98584.56;;;10.97;100.00
65754;BME280;52488;47.502;18.940;2022-10-26T01:37:12;98591.03;;;10.92;100.00
65754;BME280;52488;47.502;18.940;2022-10-26T01:38:06;98586.69;;;10.89;100.00
65754;BME280;52488;47.502;18.940;2022-10-26T01:39:29;98584.22;;;10.83;100.00
65754;BME280;52488;47.502;18.940;2022-10-26T01:42:00;98580.72;;;10.82;100.00
65754;BME280;52488;47.502;18.940;2022-10-26T01:43:08;98587.97;;;10.78;100.00
65754;BME280;52488;47.502;18.940;2022-10-26T01:45:21;98590.53;;;10.76;100.00
65754;BME280;52488;47.502;18.940;2022-10-26T01:46:26;98584.63;;;10.79;100.00
65754;BME280;52488;47.502;18.940;2022-10-26T01:47:32;98583.47;;;10.82;100.00
65754;BME280;52488;47.502;18.940;2022-10-26T01:48:36;98573.50;;;10.87;100.00
65754;BME280;52488;47.502;18.940;2022-10-26T01:49:45;98572.66;;;10.84;100.00
65754;BME280;52488;47.502;18.940;2022-10-26T01:50:52;98578.25;;;10.77;100.00
65754;BME280;52488;47.502;18.940;2022-10-26T01:51:56;98573.00;;;10.71;100.00
65754;BME280;52488;47.502;18.940;2022-10-26T01:52:59;98577.06;;;10.70;100.00
65754;BME280;52488;47.502;18.940;2022-10-26T01:54:02;98579.00;;;10.77;100.00
65754;BME280;52488;47.502;18.940;2022-10-26T01:55:53;98578.88;;;10.85;100.00
65754;BME280;52488;47.502;18.940;2022-10-26T01:56:37;98581.16;;;10.79;100.00
65754;BME280;52488;47.502;18.940;2022-10-26T01:57:41;98577.97;;;10.73;100.00
65754;BME280;52488;47.502;18.940;2022-10-26T01:59:02;98583.28;;;10.71;100.00
65754;BME280;52488;47.502;18.940;2022-10-26T02:00:11;98574.75;;;10.67;100.00
65754;BME280;52488;47.502;18.940;2022-10-26T02:01:43;98574.91;;;10.69;100.00
65754;BME280;52488;47.502;18.940;2022-10-26T02:03:00;98579.25;;;10.72;100.00
65754;BME280;52488;47.502;18.940;2022-10-26T02:07:09;98576.00;;;10.56;100.00
65754;BME280;52488;47.502;18.940;2022-10-26T02:08:49;98571.31;;;10.49;100.00
65754;BME280;52488;47.502;18.940;2022-10-26T02:11:39;98574.28;;;10.34;100.00
65754;BME280;52488;47.502;18.940;2022-10-26T02:12:52;98567.91;;;10.31;100.00
65754;BME280;52488;47.502;18.940;2022-10-26T02:14:15;98564.59;;;10.32;100.00
65754;BME280;52488;47.502;18.940;2022-10-26T02:15:52;98570.81;;;10.33;100.00
65754;BME280;52488;47.502;18.940;2022-10-26T02:17:01;98564.03;;;10.34;100.00
65754;BME280;52488;47.502;18.940;2022-10-26T02:18:20;98557.66;;;10.31;100.00
65754;BME280;52488;47.502;18.940;2022-10-26T02:19:32;98570.41;;;10.37;100.00
65754;BME280;52488;47.502;18.940;2022-10-26T02:20:43;98563.47;;;10.36;100.00
65754;BME280;52488;47.502;18.940;2022-10-26T02:21:50;98568.94;;;10.36;100.00
65754;BME280;52488;47.502;18.940;2022-10-26T02:22:55;98562.00;;;10.35;100.00
65754;BME280;52488;47.502;18.940;2022-10-26T02:25:24;98572.94;;;10.52;100.00
65754;BME280;52488;47.502;18.940;2022-10-26T02:26:29;98566.56;;;10.49;100.00
65754;BME280;52488;47.502;18.940;2022-10-26T02:27:36;98562.94;;;10.47;100.00
65754;BME280;52488;47.502;18.940;2022-10-26T02:28:45;98567.31;;;10.50;100.00
65754;BME280;52488;47.502;18.940;2022-10-26T02:29:49;98568.75;;;10.51;100.00
65754;BME280;52488;47.502;18.940;2022-10-26T02:30:57;98562.81;;;10.54;100.00
65754;BME280;52488;47.502;18.940;2022-10-26T02:32:02;98564.69;;;10.52;100.00
65754;BME280;52488;47.502;18.940;2022-10-26T02:33:06;98570.78;;;10.50;100.00
65754;BME280;52488;47.502;18.940;2022-10-26T02:34:12;98568.75;;;10.51;100.00
65754;BME280;52488;47.502;18.940;2022-10-26T02:35:21;98569.16;;;10.47;100.00
65754;BME280;52488;47.502;18.940;2022-10-26T02:36:28;98575.37;;;10.48;100.00
65754;BME280;52488;47.502;18.940;2022-10-26T02:37:33;98572.53;;;10.55;100.00
65754;BME280;52488;47.502;18.940;2022-10-26T02:38:39;98574.97;;;10.51;100.00
65754;BME280;52488;47.502;18.940;2022-10-26T02:39:45;98571.75;;;10.45;100.00
65754;BME280;52488;47.502;18.940;2022-10-26T02:40:50;98573.47;;;10.41;100.00
65754;BME280;52488;47.502;18.940;2022-10-26T02:41:54;98582.28;;;10.39;100.00
65754;BME280;52488;47.502;18.940;2022-10-26T02:43:04;98578.69;;;10.46;100.00
65754;BME280;52488;47.502;18.940;2022-10-26T02:44:18;98573.53;;;10.50;100.00
65754;BME280;52488;47.502;18.940;2022-10-26T02:45:32;98574.25;;;10.51;100.00
65754;BME280;52488;47.502;18.940;2022-10-26T02:46:36;98573.59;;;10.43;100.00
65754;BME280;52488;47.502;18.940;2022-10-26T02:47:39;98578.69;;;10.46;100.00
65754;BME280;52488;47.502;18.940;2022-10-26T02:48:43;98584.59;;;10.43;100.00
65754;BME280;52488;47.502;18.940;2022-10-26T02:49:46;98577.91;;;10.36;100.00
65754;BME280;52488;47.502;18.940;2022-10-26T02:51:17;98587.03;;;10.39;100.00
65754;BME280;52488;47.502;18.940;2022-10-26T02:52:44;98582.09;;;10.37;100.00
65754;BME280;52488;47.502;18.940;2022-10-26T02:53:58;98587.03;;;10.39;100.00
65754;BME280;52488;47.502;18.940;2022-10-26T02:55:10;98583.31;;;10.44;100.00
65754;BME280;52488;47.502;18.940;2022-10-26T02:56:28;98576.94;;;10.41;100.00
65754;BME280;52488;47.502;18.940;2022-10-26T02:57:37;98584.31;;;10.39;100.00
65754;BME280;52488;47.502;18.940;2022-10-26T02:58:45;98588.91;;;10.36;100.00
65754;BME280;52488;47.502;18.940;2022-10-26T02:59:49;98585.56;;;10.38;100.00
65754;BME280;52488;47.502;18.940;2022-10-26T03:00:52;98588.03;;;10.34;100.00
65754;BME280;52488;47.502;18.940;2022-10-26T03:01:56;98594.66;;;10.30;100.00
65754;BME280;52488;47.502;18.940;2022-10-26T03:02:59;98592.88;;;10.25;100.00
65754;BME280;52488;47.502;18.940;2022-10-26T03:04:05;98585.94;;;10.24;100.00
65754;BME280;52488;47.502;18.940;2022-10-26T03:05:23;98585.75;;;10.22;100.00
65754;BME280;52488;47.502;18.940;2022-10-26T03:06:27;98596.91;;;10.24;100.00
65754;BME280;52488;47.502;18.940;2022-10-26T03:07:30;98583.03;;;10.22;100.00
65754;BME280;52488;47.502;18.940;2022-10-26T03:08:33;98591.44;;;10.24;100.00
65754;BME280;52488;47.502;18.940;2022-10-26T03:09:36;98594.31;;;10.26;100.00
65754;BME280;52488;47.502;18.940;2022-10-26T03:10:41;98592.31;;;10.27;100.00
65754;BME280;52488;47.502;18.940;2022-10-26T03:11:44;98596.03;;;10.22;100.00
65754;BME280;52488;47.502;18.940;2022-10-26T03:12:51;98596.56;;;10.20;100.00
65754;BME280;52488;47.502;18.940;2022-10-26T03:13:54;98600.16;;;10.13;100.00
65754;BME280;52488;47.502;18.940;2022-10-26T03:14:57;98594.19;;;10.07;100.00
65754;BME280;52488;47.502;18.940;2022-10-26T03:16:00;98596.78;;;10.05;100.00
65754;BME280;52488;47.502;18.940;2022-10-26T03:17:03;98592.41;;;10.02;100.00
65754;BME280;52488;47.502;18.940;2022-10-26T03:18:06;98594.28;;;9.99;100.00
65754;BME280;52488;47.502;18.940;2022-10-26T03:19:10;98601.63;;;9.97;100.00
65754;BME280;52488;47.502;18.940;2022-10-26T03:20:12;98598.72;;;9.95;100.00
65754;BME280;52488;47.502;18.940;2022-10-26T03:21:17;98594.69;;;9.96;100.00
65754;BME280;52488;47.502;18.940;2022-10-26T03:22:19;98593.38;;;9.97;100.00
65754;BME280;52488;47.502;18.940;2022-10-26T03:23:23;98595.78;;;9.93;100.00
65754;BME280;52488;47.502;18.940;2022-10-26T03:24:26;98593.28;;;9.87;100.00
65754;BME280;52488;47.502;18.940;2022-10-26T03:25:28;98592.56;;;9.87;100.00
65754;BME280;52488;47.502;18.940;2022-10-26T03:26:31;98598.25;;;9.89;100.00
65754;BME280;52488;47.502;18.940;2022-10-26T03:27:34;98594.03;;;9.88;100.00
65754;BME280;52488;47.502;18.940;2022-10-26T03:28:37;98597.66;;;9.90;100.00
65754;BME280;52488;47.502;18.940;2022-10-26T03:29:40;98599.69;;;9.90;100.00
65754;BME280;52488;47.502;18.940;2022-10-26T03:30:43;98599.13;;;9.91;100.00
65754;BME280;52488;47.502;18.940;2022-10-26T03:31:45;98610.81;;;9.92;100.00
65754;BME280;52488;47.502;18.940;2022-10-26T03:32:56;98602.00;;;9.93;100.00
65754;BME280;52488;47.502;18.940;2022-10-26T03:33:58;98604.34;;;9.97;100.00
65754;BME280;52488;47.502;18.940;2022-10-26T03:35:02;98603.06;;;9.98;100.00
65754;BME280;52488;47.502;18.940;2022-10-26T03:36:05;98603.78;;;9.98;100.00
65754;BME280;52488;47.502;18.940;2022-10-26T03:37:08;98605.81;;;9.98;100.00
65754;BME280;52488;47.502;18.940;2022-10-26T03:38:11;98601.22;;;10.00;100.00
65754;BME280;52488;47.502;18.940;2022-10-26T03:39:17;98611.78;;;10.04;100.00
65754;BME280;52488;47.502;18.940;2022-10-26T03:40:20;98601.50;;;10.04;100.00
65754;BME280;52488;47.502;18.940;2022-10-26T03:41:23;98605.56;;;10.03;100.00
65754;BME280;52488;47.502;18.940;2022-10-26T03:42:26;98603.97;;;10.00;100.00
65754;BME280;52488;47.502;18.940;2022-10-26T03:43:29;98608.00;;;9.99;100.00
65754;BME280;52488;47.502;18.940;2022-10-26T03:44:32;98615.47;;;9.99;100.00
65754;BME280;52488;47.502;18.940;2022-10-26T03:45:35;98611.28;;;9.98;100.00
65754;BME280;52488;47.502;18.940;2022-10-26T03:46:38;98610.25;;;9.93;100.00
65754;BME280;52488;47.502;18.940;2022-10-26T03:47:45;98611.53;;;9.92;100.00
65754;BME280;52488;47.502;18.940;2022-10-26T03:48:49;98617.59;;;9.91;100.00
65754;BME280;52488;47.502;18.940;2022-10-26T03:49:51;98609.94;;;9.89;100.00
65754;BME280;52488;47.502;18.940;2022-10-26T03:50:58;98609.50;;;9.93;100.00
65754;BME280;52488;47.502;18.940;2022-10-26T03:52:01;98617.03;;;9.92;100.00
65754;BME280;52488;47.502;18.940;2022-10-26T03:53:04;98616.31;;;9.92;100.00
65754;BME280;52488;47.502;18.940;2022-10-26T03:54:07;98614.13;;;9.90;100.00
65754;BME280;52488;47.502;18.940;2022-10-26T03:55:10;98616.88;;;9.90;100.00
65754;BME280;52488;47.502;18.940;2022-10-26T03:56:12;98614.84;;;9.91;100.00
65754;BME280;52488;47.502;18.940;2022-10-26T03:57:16;98620.34;;;9.91;100.00
65754;BME280;52488;47.502;18.940;2022-10-26T03:58:19;98618.91;;;9.90;100.00
65754;BME280;52488;47.502;18.940;2022-10-26T03:59:21;98614.84;;;9.91;100.00
65754;BME280;52488;47.502;18.940;2022-10-26T04:00:24;98619.78;;;9.92;100.00
65754;BME280;52488;47.502;18.940;2022-10-26T04:01:27;98615.00;;;9.93;100.00
65754;BME280;52488;47.502;18.940;2022-10-26T04:02:30;98616.47;;;9.94;100.00
65754;BME280;52488;47.502;18.940;2022-10-26T04:03:33;98615.91;;;9.95;100.00
65754;BME280;52488;47.502;18.940;2022-10-26T04:04:35;98622.13;;;9.96;100.00
65754;BME280;52488;47.502;18.940;2022-10-26T04:05:38;98624.88;;;9.96;100.00
65754;BME280;52488;47.502;18.940;2022-10-26T04:06:41;98620.81;;;9.97;100.00
65754;BME280;52488;47.502;18.940;2022-10-26T04:07:54;98625.59;;;9.96;100.00
65754;BME280;52488;47.502;18.940;2022-10-26T04:08:57;98618.22;;;9.99;100.00
65754;BME280;52488;47.502;18.940;2022-10-26T04:10:04;98626.31;;;9.97;100.00
65754;BME280;52488;47.502;18.940;2022-10-26T04:11:08;98625.59;;;9.96;100.00
65754;BME280;52488;47.502;18.940;2022-10-26T04:12:10;98628.19;;;9.94;100.00
65754;BME280;52488;47.502;18.940;2022-10-26T04:13:13;98629.44;;;9.93;100.00
65754;BME280;52488;47.502;18.940;2022-10-26T04:14:16;98625.97;;;9.93;100.00
65754;BME280;52488;47.502;18.940;2022-10-26T04:15:20;98623.97;;;9.93;100.00
65754;BME280;52488;47.502;18.940;2022-10-26T04:16:23;98619.78;;;9.92;100.00
65754;BME280;52488;47.502;18.940;2022-10-26T04:17:29;98632.78;;;9.92;100.00
65754;BME280;52488;47.502;18.940;2022-10-26T04:18:32;98632.78;;;9.92;100.00
65754;BME280;52488;47.502;18.940;2022-10-26T04:19:35;98625.97;;;9.93;100.00
65754;BME280;52488;47.502;18.940;2022-10-26T04:20:38;98626.72;;;9.93;100.00
65754;BME280;52488;47.502;18.940;2022-10-26T04:21:43;98621.41;;;9.95;100.00
65754;BME280;52488;47.502;18.940;2022-10-26T04:22:46;98624.28;;;9.97;100.00
65754;BME280;52488;47.502;18.940;2022-10-26T04:23:49;98612.75;;;9.99;100.00
65754;BME280;52488;47.502;18.940;2022-10-26T04:24:52;98621.72;;;9.99;100.00
65754;BME280;52488;47.502;18.940;2022-10-26T04:25:55;98618.97;;;9.99;100.00
65754;BME280;52488;47.502;18.940;2022-10-26T04:26:57;98619.53;;;9.98;100.00
65754;BME280;52488;47.502;18.940;2022-10-26T04:28:02;98616.78;;;9.98;100.00
65754;BME280;52488;47.502;18.940;2022-10-26T04:29:05;98618.09;;;9.97;100.00
65754;BME280;52488;47.502;18.940;2022-10-26T04:30:08;98612.59;;;9.97;100.00
65754;BME280;52488;47.502;18.940;2022-10-26T04:31:11;98619.53;;;9.98;100.00
65754;BME280;52488;47.502;18.940;2022-10-26T04:32:14;98618.97;;;9.99;100.00
65754;BME280;52488;47.502;18.940;2022-10-26T04:33:16;98615.47;;;9.99;100.00
65754;BME280;52488;47.502;18.940;2022-10-26T04:34:19;98623.00;;;9.98;100.00
65754;BME280;52488;47.502;18.940;2022-10-26T04:35:22;98623.00;;;9.98;100.00
65754;BME280;52488;47.502;18.940;2022-10-26T04:36:25;98617.50;;;9.98;100.00
65754;BME280;52488;47.502;18.940;2022-10-26T04:37:28;98619.53;;;9.98;100.00
65754;BME280;52488;47.502;18.940;2022-10-26T04:38:30;98624.28;;;9.97;100.00
65754;BME280;52488;47.502;18.940;2022-10-26T04:39:33;98613.31;;;9.97;100.00
65754;BME280;52488;47.502;18.940;2022-10-26T04:40:36;98618.81;;;9.97;100.00
65754;BME280;52488;47.502;18.940;2022-10-26T04:41:39;98619.53;;;9.98;100.00
65754;BME280;52488;47.502;18.940;2022-10-26T04:42:43;98616.78;;;9.98;100.00
65754;BME280;52488;47.502;18.940;2022-10-26T04:43:46;98612.59;;;9.97;100.00
65754;BME280;52488;47.502;18.940;2022-10-26T04:44:49;98611.88;;;9.96;100.00
65754;BME280;52488;47.502;18.940;2022-10-26T04:45:56;98615.19;;;9.95;100.00
65754;BME280;52488;47.502;18.940;2022-10-26T04:46:59;98620.69;;;9.95;100.00
65754;BME280;52488;47.502;18.940;2022-10-26T04:48:09;98608.25;;;9.94;100.00
65754;BME280;52488;47.502;18.940;2022-10-26T04:49:12;98613.56;;;9.92;100.00
65754;BME280;52488;47.502;18.940;2022-10-26T04:50:15;98611.38;;;9.90;100.00
65754;BME280;52488;47.502;18.940;2022-10-26T04:51:18;98609.38;;;9.91;100.00
65754;BME280;52488;47.502;18.940;2022-10-26T04:52:21;98614.84;;;9.91;100.00
65754;BME280;52488;47.502;18.940;2022-10-26T04:53:24;98609.38;;;9.91;100.00
65754;BME280;52488;47.502;18.940;2022-10-26T04:54:27;98604.59;;;9.91;100.00
65754;BME280;52488;47.502;18.940;2022-10-26T04:55:29;98607.34;;;9.91;100.00
65754;BME280;52488;47.502;18.940;2022-10-26T04:56:32;98607.34;;;9.91;100.00
65754;BME280;52488;47.502;18.940;2022-10-26T04:57:35;98601.13;;;9.91;100.00
65754;BME280;52488;47.502;18.940;2022-10-26T04:58:38;98602.44;;;9.90;100.00
65754;BME280;52488;47.502;18.940;2022-10-26T04:59:41;98606.47;;;9.89;100.00
65754;BME280;52488;47.502;18.940;2022-10-26T05:00:43;98605.00;;;9.88;100.00
65754;BME280;52488;47.502;18.940;2022-10-26T05:01:46;98601.38;;;9.85;100.00
65754;BME280;52488;47.502;18.940;2022-10-26T05:02:49;98607.59;;;9.86;100.00
65754;BME280;52488;47.502;18.940;2022-10-26T05:03:53;98602.81;;;9.86;100.00
65754;BME280;52488;47.502;18.940;2022-10-26T05:04:56;98603.22;;;9.83;100.00
65754;BME280;52488;47.502;18.940;2022-10-26T05:05:59;98601.06;;;9.81;100.00
65754;BME280;52488;47.502;18.940;2022-10-26T05:07:02;98595.56;;;9.81;100.00
65754;BME280;52488;47.502;18.940;2022-10-26T05:08:05;98604.38;;;9.79;100.00
65754;BME280;52488;47.502;18.940;2022-10-26T05:09:07;98600.91;;;9.79;100.00
65754;BME280;52488;47.502;18.940;2022-10-26T05:10:10;98600.19;;;9.78;100.00
65754;BME280;52488;47.502;18.940;2022-10-26T05:11:13;98599.59;;;9.80;100.00
65754;BME280;52488;47.502;18.940;2022-10-26T05:12:16;98598.87;;;9.79;100.00
65754;BME280;52488;47.502;18.940;2022-10-26T05:13:19;98596.84;;;9.80;100.00
65754;BME280;52488;47.502;18.940;2022-10-26T05:14:23;98600.19;;;9.78;100.00
65754;BME280;52488;47.502;18.940;2022-10-26T05:15:26;98600.91;;;9.79;100.00
65754;BME280;52488;47.502;18.940;2022-10-26T05:16:29;98605.66;;;9.78;100.00
65754;BME280;52488;47.502;18.940;2022-10-26T05:17:32;98602.91;;;9.78;100.00
65754;BME280;52488;47.502;18.940;2022-10-26T05:18:35;98611.88;;;9.79;100.00
65754;BME280;52488;47.502;18.940;2022-10-26T05:19:38;98609.84;;;9.79;100.00
65754;BME280;52488;47.502;18.940;2022-10-26T05:20:45;98610.56;;;9.80;100.00
65754;BME280;52488;47.502;18.940;2022-10-26T05:21:48;98616.78;;;9.81;100.00
65754;BME280;52488;47.502;18.940;2022-10-26T05:22:55;98603.97;;;9.83;100.00
65754;BME280;52488;47.502;18.940;2022-10-26T05:23:58;98607.25;;;9.82;100.00
65754;BME280;52488;47.502;18.940;2022-10-26T05:25:01;98606.53;;;9.81;100.00
65754;BME280;52488;47.502;18.940;2022-10-26T05:26:04;98612.75;;;9.82;100.00
65754;BME280;52488;47.502;18.940;2022-10-26T05:27:07;98608.72;;;9.83;100.00
65754;BME280;52488;47.502;18.940;2022-10-26T05:28:11;98612.94;;;9.84;100.00
65754;BME280;52488;47.502;18.940;2022-10-26T05:29:14;98610.34;;;9.86;100.00
65754;BME280;52488;47.502;18.940;2022-10-26T05:30:17;98609.03;;;9.87;100.00
65754;BME280;52488;47.502;18.940;2022-10-26T05:31:20;98612.69;;;9.89;100.00
65754;BME280;52488;47.502;18.940;2022-10-26T05:32:23;98614.72;;;9.89;100.00
65754;BME280;52488;47.502;18.940;2022-10-26T05:33:26;98609.75;;;9.87;100.00
65754;BME280;52488;47.502;18.940;2022-10-26T05:34:28;98613.41;;;9.90;100.00
65754;BME280;52488;47.502;18.940;2022-10-26T05:35:32;98617.59;;;9.91;100.00
65754;BME280;52488;47.502;18.940;2022-10-26T05:36:35;98616.16;;;9.90;100.00
65754;BME280;52488;47.502;18.940;2022-10-26T05:37:37;98610.66;;;9.90;100.00
65754;BME280;52488;47.502;18.940;2022-10-26T05:38:40;98617.59;;;9.91;100.00
65754;BME280;52488;47.502;18.940;2022-10-26T05:39:43;98608.66;;;9.90;100.00
65754;BME280;52488;47.502;18.940;2022-10-26T05:40:50;98615.19;;;9.95;100.00
65754;BME280;52488;47.502;18.940;2022-10-26T05:41:53;98620.25;;;9.98;100.00
65754;BME280;52488;47.502;18.940;2022-10-26T05:43:00;98609.28;;;9.98;100.00
65754;BME280;52488;47.502;18.940;2022-10-26T05:44:03;98619.53;;;9.98;100.00
65754;BME280;52488;47.502;18.940;2022-10-26T05:45:06;98622.28;;;9.98;100.00
65754;BME280;52488;47.502;18.940;2022-10-26T05:46:09;98624.47;;;9.99;100.00
65754;BME280;52488;47.502;18.940;2022-10-26T05:47:12;98622.28;;;9.98;100.00
65754;BME280;52488;47.502;18.940;2022-10-26T05:48:15;98625.19;;;10.00;100.00
65754;BME280;52488;47.502;18.940;2022-10-26T05:49:18;98627.94;;;10.00;100.00
65754;BME280;52488;47.502;18.940;2022-10-26T05:50:21;98625.19;;;10.00;100.00
65754;BME280;52488;47.502;18.940;2022-10-26T05:51:24;98620.97;;;9.99;100.00
65754;BME280;52488;47.502;18.940;2022-10-26T05:52:26;98626.66;;;10.01;100.00
65754;BME280;52488;47.502;18.940;2022-10-26T05:53:29;98630.25;;;10.03;100.00
65754;BME280;52488;47.502;18.940;2022-10-26T05:54:32;98626.97;;;10.05;100.00
65754;BME280;52488;47.502;18.940;2022-10-26T05:55:35;98633.34;;;10.08;100.00
65754;BME280;52488;47.502;18.940;2022-10-26T05:56:39;98634.38;;;10.12;100.00
65754;BME280;52488;47.502;18.940;2022-10-26T05:57:43;98639.44;;;10.16;100.00
65754;BME280;52488;47.502;18.940;2022-10-26T05:58:50;98637.03;;;10.20;100.00